createdAt,value
2022-10-05T00:01:38.031Z,93488.22
2022-10-05T00:04:15.751Z,93481.16
2022-10-05T00:06:48.451Z,93486.53
2022-10-05T00:09:21.356Z,93486.34
2022-10-05T00:11:52.072Z,93475.41
2022-10-05T00:14:28.042Z,93482.53
2022-10-05T00:16:58.562Z,93477.63
2022-10-05T00:19:33.114Z,93480.41
2022-10-05T00:22:12.995Z,93490.66
2022-10-05T00:24:44.376Z,93492.88
2022-10-05T00:27:20.859Z,93488.84
2022-10-05T00:29:52.834Z,93490.19
2022-10-05T00:32:23.854Z,93492.34
2022-10-05T00:34:53.690Z,93495.63
2022-10-05T00:37:23.554Z,93493.31
2022-10-05T00:39:54.976Z,93498.25
2022-10-05T00:42:40.655Z,93492.59
2022-10-05T00:45:16.869Z,93495.16
2022-10-05T00:47:56.914Z,93494.41
2022-10-05T00:51:53.448Z,93491.44
2022-10-05T00:54:36.209Z,93490.22
2022-10-05T00:57:24.169Z,93491.59
2022-10-05T01:00:07.752Z,93487.06
2022-10-05T01:02:51.896Z,93490.94
2022-10-05T01:05:44.691Z,93491.06
2022-10-05T01:08:32.315Z,93491.59
2022-10-05T01:11:16.775Z,93497.41
2022-10-05T01:13:57.830Z,93499.22
2022-10-05T01:16:41.322Z,93505.84
2022-10-05T01:19:48.591Z,93494.78
2022-10-05T01:22:31.839Z,93502.81
2022-10-05T01:25:21.474Z,93495.97
2022-10-05T01:28:04.587Z,93500.16
2022-10-05T01:30:39.614Z,93502.72
2022-10-05T01:33:20.791Z,93497.81
2022-10-05T01:36:02.193Z,93501.97
2022-10-05T01:38:46.884Z,93501.84
2022-10-05T01:41:32.809Z,93513.06
2022-10-05T01:44:09.713Z,93514.91
2022-10-05T01:46:45.484Z,93516.56
2022-10-05T01:49:36.375Z,93524.69
2022-10-05T01:52:22.951Z,93527.28
2022-10-05T01:55:11.717Z,93535.94
2022-10-05T01:58:05.210Z,93528.59
2022-10-05T02:00:49.538Z,93524.16
2022-10-05T02:03:22.918Z,93527.28
2022-10-05T02:06:00.036Z,93527.47
2022-10-05T02:08:36.833Z,93527.84
2022-10-05T02:11:11.149Z,93531.38
2022-10-05T02:13:44.969Z,93525.34
2022-10-05T02:16:21.420Z,93537.38
2022-10-05T02:18:56.374Z,93532.16
2022-10-05T02:21:27.233Z,93537.63
2022-10-05T02:24:04.053Z,93532.69
2022-10-05T02:26:37.174Z,93530.16
2022-10-05T02:29:11.793Z,93536.25
2022-10-05T02:31:50.800Z,93532.09
2022-10-05T02:34:27.149Z,93549.25
2022-10-05T02:37:20.570Z,93545.78
2022-10-05T02:40:18.454Z,93551.19
2022-10-05T02:43:02.246Z,93553.84
2022-10-05T02:45:43.934Z,93542.88
2022-10-05T02:48:26.254Z,93544.56
2022-10-05T02:51:06.495Z,93554.22
2022-10-05T02:53:46.536Z,93550.06
2022-10-05T02:56:28.209Z,93548.84
2022-10-05T02:59:06.590Z,93555.19
2022-10-05T03:01:45.370Z,93560.34
2022-10-05T03:04:34.554Z,93561.03
2022-10-05T03:07:15.275Z,93552.59
2022-10-05T03:09:52.334Z,93562.03
2022-10-05T03:12:43.744Z,93559.34
2022-10-05T03:15:29.254Z,93566.31
2022-10-05T03:18:08.699Z,93563.78
2022-10-05T03:20:50.252Z,93571.59
2022-10-05T03:23:31.325Z,93572.69
2022-10-05T03:26:20.149Z,93578.59
2022-10-05T03:29:01.935Z,93580.16
2022-10-05T03:31:41.259Z,93578.50
2022-10-05T03:34:18.772Z,93576.50
2022-10-05T03:36:58.012Z,93575.13
2022-10-05T03:39:38.163Z,93582.91
2022-10-05T03:42:17.569Z,93578.75
2022-10-05T03:44:55.771Z,93579.09
2022-10-05T03:47:35.195Z,93581.28
2022-10-05T03:52:50.717Z,93600.25
2022-10-05T03:55:27.885Z,93594.09
2022-10-05T03:58:05.115Z,93593.25
2022-10-05T04:00:37.175Z,93599.31
2022-10-05T04:03:13.055Z,93598.53
2022-10-05T04:05:50.751Z,93599.31
2022-10-05T04:08:31.214Z,93598.66
2022-10-05T04:11:06.009Z,93603.97
2022-10-05T04:13:41.994Z,93609.06
2022-10-05T04:16:19.379Z,93611.41
2022-10-05T04:18:56.450Z,93606.31
2022-10-05T04:21:31.871Z,93614.97
2022-10-05T04:24:11.334Z,93618.31
2022-10-05T04:26:48.278Z,93621.47
2022-10-05T04:29:30.070Z,93619.75
2022-10-05T04:32:20.108Z,93620.88
2022-10-05T04:35:04.754Z,93615.97
2022-10-05T04:37:46.698Z,93617.63
2022-10-05T04:40:39.338Z,93629.53
2022-10-05T04:43:18.213Z,93626.97
2022-10-05T04:46:10.922Z,93625.97
2022-10-05T04:49:04.749Z,93624.97
2022-10-05T04:51:47.751Z,93632.66
2022-10-05T04:54:37.254Z,93634.53
2022-10-05T04:57:18.130Z,93639.72
2022-10-05T05:00:07.135Z,93644.69
2022-10-05T05:02:53.714Z,93636.66
2022-10-05T05:05:48.366Z,93641.72
2022-10-05T05:08:49.623Z,93643.06
2022-10-05T05:11:33.934Z,93645.28
2022-10-05T05:14:40.955Z,93653.44
2022-10-05T05:17:28.780Z,93672.66
2022-10-05T05:20:11.011Z,93670.31
2022-10-05T05:22:51.889Z,93674.03
2022-10-05T05:25:43.791Z,93671.78
2022-10-05T05:28:25.325Z,93676.31
2022-10-05T05:31:11.083Z,93689.50
2022-10-05T05:33:56.314Z,93688.19
2022-10-05T05:36:54.271Z,93688.28
2022-10-05T05:39:30.414Z,93685.84
2022-10-05T05:42:18.650Z,93697.19
2022-10-05T05:44:52.690Z,93690.16
2022-10-05T05:47:30.285Z,93701.38
2022-10-05T05:50:22.410Z,93706.50
2022-10-05T05:52:58.990Z,93706.50
2022-10-05T05:55:34.869Z,93720.25
2022-10-05T05:58:13.482Z,93716.69
2022-10-05T06:00:50.393Z,93710.50
2022-10-05T06:03:27.948Z,93701.72
2022-10-05T06:06:01.590Z,93704.91
2022-10-05T06:08:38.030Z,93711.66
2022-10-05T06:11:16.297Z,93713.03
2022-10-05T06:13:46.752Z,93711.88
2022-10-05T06:16:24.179Z,93715.81
2022-10-05T06:19:01.310Z,93710.25
2022-10-05T06:21:37.083Z,93705.75
2022-10-05T06:24:16.010Z,93716.84
2022-10-05T06:27:19.170Z,93716.19
2022-10-05T06:30:08.474Z,93721.44
2022-10-05T06:32:54.851Z,93721.75
2022-10-05T06:35:46.316Z,93718.66
2022-10-05T06:38:40.679Z,93724.09
2022-10-05T06:41:23.501Z,93725.25
2022-10-05T06:44:01.024Z,93723.38
2022-10-05T06:46:36.211Z,93715.69
2022-10-05T06:53:06.449Z,93722.13
2022-10-05T06:55:47.389Z,93734.72
2022-10-05T06:58:38.903Z,93733.53
2022-10-05T07:01:16.261Z,93725.41
2022-10-05T07:04:10.619Z,93732.97
2022-10-05T07:06:46.809Z,93729.81
2022-10-05T07:09:38.542Z,93738.28
2022-10-05T07:12:45.801Z,93739.03
2022-10-05T07:15:46.718Z,93741.84
2022-10-05T07:18:39.955Z,93738.03
2022-10-05T07:21:21.802Z,93738.38
2022-10-05T07:24:01.471Z,93735.38
2022-10-05T07:26:39.277Z,93741.91
2022-10-05T07:29:24.893Z,93738.78
2022-10-05T07:32:12.761Z,93734.66
2022-10-05T07:34:56.571Z,93741.91
2022-10-05T07:37:54.763Z,93739.47
2022-10-05T07:40:30.994Z,93746.69
2022-10-05T07:43:25.036Z,93743.84
2022-10-05T07:46:03.462Z,93752.69
2022-10-05T07:48:52.478Z,93754.81
2022-10-05T07:51:32.151Z,93755.97
2022-10-05T07:54:18.853Z,93754.88
2022-10-05T07:56:54.358Z,93764.69
2022-10-05T07:59:36.263Z,93767.00
2022-10-05T08:02:16.712Z,93761.69
2022-10-05T08:04:59.279Z,93767.25
2022-10-05T08:07:33.312Z,93768.78
2022-10-05T08:10:20.011Z,93764.84
2022-10-05T08:13:08.991Z,93765.00
2022-10-05T08:15:45.129Z,93766.78
2022-10-05T08:18:23.554Z,93774.69
2022-10-05T08:20:58.435Z,93765.97
2022-10-05T08:23:36.342Z,93772.41
2022-10-05T08:26:19.295Z,93768.53
2022-10-05T08:28:57.132Z,93766.31
2022-10-05T08:31:33.384Z,93766.22
2022-10-05T08:34:21.413Z,93762.03
2022-10-05T08:37:00.643Z,93764.47
2022-10-05T08:39:35.671Z,93760.47
2022-10-05T08:42:38.360Z,93752.31
2022-10-05T08:45:53.064Z,93760.72
2022-10-05T08:48:41.572Z,93759.91
2022-10-05T08:51:39.379Z,93758.44
2022-10-05T08:54:52.873Z,93752.19
2022-10-05T08:57:56.511Z,93761.09
2022-10-05T09:00:29.193Z,93759.44
2022-10-05T09:04:01.693Z,93759.03
2022-10-05T09:07:10.833Z,93758.34
2022-10-05T09:10:20.044Z,93760.28
2022-10-05T09:13:21.594Z,93754.19
2022-10-05T09:16:31.916Z,93756.94
2022-10-05T09:19:57.695Z,93754.72
2022-10-05T09:22:46.693Z,93764.03
2022-10-05T09:25:25.033Z,93760.00
2022-10-05T09:27:59.090Z,93758.06
2022-10-05T09:30:43.579Z,93762.53
2022-10-05T09:34:20.558Z,93758.59
2022-10-05T09:37:21.437Z,93762.22
2022-10-05T09:40:42.752Z,93768.06
2022-10-05T09:44:10.397Z,93763.91
2022-10-05T09:47:04.955Z,93775.72
2022-10-05T09:53:10.379Z,93774.88
2022-10-05T09:56:40.116Z,93778.22
2022-10-05T10:00:01.927Z,93777.16
2022-10-05T10:03:05.563Z,93776.78
2022-10-05T10:06:03.754Z,93777.72
2022-10-05T10:08:53.412Z,93781.38
2022-10-05T10:11:49.544Z,93778.03
2022-10-05T10:14:51.274Z,93777.81
2022-10-05T10:17:50.673Z,93783.34
2022-10-05T10:20:36.697Z,93794.25
2022-10-05T10:23:30.649Z,93790.69
2022-10-05T10:26:52.631Z,93794.91
2022-10-05T10:30:05.031Z,93797.34
2022-10-05T10:33:16.198Z,93785.56
2022-10-05T10:35:57.163Z,93780.09
2022-10-05T10:38:43.292Z,93781.38
2022-10-05T10:42:05.758Z,93777.50
2022-10-05T10:45:21.446Z,93782.03
2022-10-05T10:48:13.111Z,93777.88
2022-10-05T10:51:16.137Z,93777.41
2022-10-05T10:54:23.537Z,93769.19
2022-10-05T10:57:11.673Z,93761.13
2022-10-05T11:00:26.033Z,93762.97
2022-10-05T11:03:32.456Z,93763.19
2022-10-05T11:06:46.631Z,93755.25
2022-10-05T11:10:26.352Z,93751.50
2022-10-05T11:13:29.093Z,93756.75
2022-10-05T11:16:51.920Z,93753.50
2022-10-05T11:20:06.164Z,93750.28
2022-10-05T11:22:56.634Z,93748.44
2022-10-05T11:26:06.111Z,93743.47
2022-10-05T11:29:17.763Z,93748.34
2022-10-05T11:32:45.519Z,93748.72
2022-10-05T11:35:57.094Z,93744.81
2022-10-05T11:39:14.534Z,93747.69
2022-10-05T11:42:45.894Z,93749.28
2022-10-05T11:45:44.889Z,93739.66
2022-10-05T11:48:56.934Z,93738.19
2022-10-05T11:51:42.666Z,93739.78
2022-10-05T11:57:53.070Z,93726.88
2022-10-05T12:00:26.178Z,93739.97
2022-10-05T12:03:43.187Z,93737.38
2022-10-05T12:06:35.634Z,93721.59
2022-10-05T12:09:24.675Z,93721.56
2022-10-05T12:12:11.950Z,93724.84
2022-10-05T12:14:54.452Z,93721.44
2022-10-05T12:17:28.815Z,93710.91
2022-10-05T12:20:04.135Z,93714.25
2022-10-05T12:22:41.856Z,93708.38
2022-10-05T12:25:31.990Z,93703.28
2022-10-05T12:28:10.183Z,93695.34
2022-10-05T12:31:16.044Z,93709.88
2022-10-05T12:33:56.177Z,93704.22
2022-10-05T12:36:59.198Z,93708.09
2022-10-05T12:39:37.055Z,93709.28
2022-10-05T12:42:18.413Z,93715.47
2022-10-05T12:45:18.492Z,93709.91
2022-10-05T12:48:10.515Z,93719.47
2022-10-05T12:53:11.985Z,93723.97
2022-10-05T12:55:54.293Z,93728.66
2022-10-05T12:58:34.960Z,93731.38
2022-10-05T13:01:15.957Z,93729.00
2022-10-05T13:03:54.756Z,93736.66
2022-10-05T13:06:37.832Z,93730.94
2022-10-05T13:09:14.894Z,93738.50
2022-10-05T13:11:50.533Z,93741.56
2022-10-05T13:14:44.896Z,93736.09
2022-10-05T13:17:22.458Z,93730.84
2022-10-05T13:20:00.499Z,93726.13
2022-10-05T13:22:38.294Z,93734.78
2022-10-05T13:25:28.860Z,93732.66
2022-10-05T13:28:17.639Z,93727.06
2022-10-05T13:30:58.813Z,93714.16
2022-10-05T13:33:56.794Z,93713.31
2022-10-05T13:36:38.774Z,93711.41
2022-10-05T13:39:32.372Z,93711.41
2022-10-05T13:42:13.056Z,93708.91
2022-10-05T13:44:52.831Z,93702.69
2022-10-05T13:47:33.554Z,93702.19
2022-10-05T13:50:09.146Z,93704.94
2022-10-05T13:52:52.635Z,93701.94
2022-10-05T13:55:41.755Z,93699.91
2022-10-05T13:58:24.954Z,93701.06
2022-10-05T14:00:57.800Z,93699.63
2022-10-05T14:03:32.647Z,93697.22
2022-10-05T14:06:06.943Z,93698.19
2022-10-05T14:08:49.657Z,93696.28
2022-10-05T14:11:32.090Z,93698.75
2022-10-05T14:14:18.615Z,93709.53
2022-10-05T14:16:54.885Z,93715.38
2022-10-05T14:19:32.769Z,93717.34
2022-10-05T14:22:05.396Z,93717.97
2022-10-05T14:24:45.412Z,93727.44
2022-10-05T14:27:24.220Z,93720.38
2022-10-05T14:30:08.401Z,93726.22
2022-10-05T14:32:56.415Z,93718.56
2022-10-05T14:35:30.284Z,93713.56
2022-10-05T14:38:03.029Z,93708.69
2022-10-05T14:40:36.432Z,93718.84
2022-10-05T14:43:21.974Z,93717.28
2022-10-05T14:46:03.064Z,93718.47
2022-10-05T14:48:43.937Z,93716.44
2022-10-05T14:51:25.910Z,93713.56
2022-10-05T14:54:01.710Z,93718.22
2022-10-05T14:56:49.037Z,93712.69
2022-10-05T14:59:49.683Z,93718.59
2022-10-05T15:03:09.355Z,93723.25
2022-10-05T15:05:46.771Z,93713.66
2022-10-05T15:08:45.495Z,93721.53
2022-10-05T15:11:26.214Z,93726.16
2022-10-05T15:13:58.074Z,93726.97
2022-10-05T15:16:32.593Z,93728.91
2022-10-05T15:19:14.613Z,93733.78
2022-10-05T15:22:06.874Z,93727.94
2022-10-05T15:24:45.816Z,93731.59
2022-10-05T15:27:28.049Z,93738.13
2022-10-05T15:30:09.777Z,93728.81
2022-10-05T15:32:58.074Z,93732.81
2022-10-05T15:36:03.313Z,93736.59
2022-10-05T15:38:41.034Z,93735.16
2022-10-05T15:41:17.638Z,93746.63
2022-10-05T15:44:06.220Z,93748.03
2022-10-05T15:46:43.171Z,93749.91
2022-10-05T15:52:55.897Z,93750.44
2022-10-05T15:55:47.370Z,93752.66
2022-10-05T15:58:50.289Z,93747.81
2022-10-05T16:01:23.976Z,93752.91
2022-10-05T16:04:00.269Z,93751.78
2022-10-05T16:07:00.999Z,93755.66
2022-10-05T16:09:52.394Z,93758.69
2022-10-05T16:12:37.616Z,93755.38
2022-10-05T16:15:22.437Z,93753.16
2022-10-05T16:18:34.374Z,93761.13
2022-10-05T16:21:17.515Z,93763.31
2022-10-05T16:24:06.534Z,93777.13
2022-10-05T16:26:58.549Z,93778.06
2022-10-05T16:29:41.335Z,93777.47
2022-10-05T16:32:16.091Z,93779.47
2022-10-05T16:35:03.174Z,93788.81
2022-10-05T16:37:42.812Z,93793.47
2022-10-05T16:40:30.212Z,93795.41
2022-10-05T16:43:19.602Z,93795.63
2022-10-05T16:46:10.027Z,93787.31
2022-10-05T16:48:51.632Z,93805.41
2022-10-05T16:51:30.496Z,93801.66
2022-10-05T16:54:18.699Z,93811.06
2022-10-05T16:56:53.892Z,93814.34
2022-10-05T17:00:17.034Z,93820.06
2022-10-05T17:03:22.129Z,93819.53
2022-10-05T17:06:39.070Z,93820.81
2022-10-05T17:09:40.569Z,93816.41
2022-10-05T17:12:36.893Z,93821.63
2022-10-05T17:15:30.355Z,93827.31
2022-10-05T17:18:23.961Z,93830.91
2022-10-05T17:21:08.115Z,93833.06
2022-10-05T17:23:55.142Z,93841.00
2022-10-05T17:26:56.495Z,93840.31
2022-10-05T17:29:33.521Z,93840.66
2022-10-05T17:32:36.310Z,93847.31
2022-10-05T17:35:22.505Z,93842.13
2022-10-05T17:38:20.491Z,93839.97
2022-10-05T17:41:19.192Z,93846.63
2022-10-05T17:44:26.543Z,93849.47
2022-10-05T17:47:04.210Z,93849.47
2022-10-05T17:50:18.213Z,93853.22
2022-10-05T17:53:38.290Z,93854.00
2022-10-05T17:56:08.535Z,93848.69
2022-10-05T17:59:00.577Z,93859.84
2022-10-05T18:01:34.724Z,93858.09
2022-10-05T18:04:34.031Z,93858.75
2022-10-05T18:07:25.653Z,93871.63
2022-10-05T18:10:02.681Z,93870.88
2022-10-05T18:13:22.984Z,93868.56
2022-10-05T18:15:53.203Z,93862.28
2022-10-05T18:18:59.678Z,93868.00
2022-10-05T18:21:37.583Z,93868.66
2022-10-05T18:24:56.140Z,93868.31
2022-10-05T18:28:00.638Z,93862.06
2022-10-05T18:30:39.927Z,93867.31
2022-10-05T18:33:54.071Z,93860.75
2022-10-05T18:36:53.150Z,93867.50
2022-10-05T18:39:50.691Z,93874.16
2022-10-05T18:42:30.693Z,93865.47
2022-10-05T18:45:12.768Z,93867.97
2022-10-05T18:47:55.714Z,93866.72
2022-10-05T18:53:07.411Z,93875.69
2022-10-05T18:55:43.921Z,93868.91
2022-10-05T18:58:28.166Z,93866.09
2022-10-05T19:01:28.231Z,93869.44
2022-10-05T19:04:11.241Z,93877.13
2022-10-05T19:06:46.356Z,93876.41
2022-10-05T19:09:36.571Z,93880.88
2022-10-05T19:12:20.331Z,93875.56
2022-10-05T19:15:01.140Z,93884.53
2022-10-05T19:17:56.069Z,93881.94
2022-10-05T19:20:37.649Z,93887.44
2022-10-05T19:23:27.903Z,93892.00
2022-10-05T19:26:12.709Z,93890.59
2022-10-05T19:28:55.392Z,93895.28
2022-10-05T19:31:36.238Z,93901.13
2022-10-05T19:34:23.796Z,93894.16
2022-10-05T19:37:08.272Z,93893.34
2022-10-05T19:39:52.175Z,93893.34
2022-10-05T19:42:49.062Z,93891.78
2022-10-05T19:45:25.217Z,93896.34
2022-10-05T19:48:12.802Z,93895.63
2022-10-05T19:50:55.352Z,93899.34
2022-10-05T19:53:32.316Z,93897.63
2022-10-05T19:56:20.625Z,93900.19
2022-10-05T19:58:58.933Z,93903.81
2022-10-05T20:01:34.330Z,93892.84
2022-10-05T20:04:05.410Z,93896.47
2022-10-05T20:06:35.758Z,93889.53
2022-10-05T20:09:23.348Z,93891.34
2022-10-05T20:11:54.120Z,93902.00
2022-10-05T20:14:33.259Z,93898.19
2022-10-05T20:17:45.422Z,93903.44
2022-10-05T20:20:39.676Z,93896.16
2022-10-05T20:23:23.941Z,93899.41
2022-10-05T20:26:11.512Z,93902.56
2022-10-05T20:28:41.360Z,93906.88
2022-10-05T20:31:14.803Z,93908.16
2022-10-05T20:33:44.649Z,93905.03
2022-10-05T20:36:14.332Z,93906.94
2022-10-05T20:38:45.749Z,93904.50
2022-10-05T20:41:16.935Z,93905.47
2022-10-05T20:43:46.792Z,93910.41
2022-10-05T20:46:18.072Z,93913.97
2022-10-05T20:48:48.209Z,93913.25
2022-10-05T20:51:18.591Z,93913.34
2022-10-05T20:53:48.392Z,93911.88
2022-10-05T20:56:20.253Z,93904.88
2022-10-05T20:58:50.350Z,93914.66
2022-10-05T21:01:29.247Z,93916.47
2022-10-05T21:03:59.211Z,93917.97
2022-10-05T21:06:29.994Z,93910.25
2022-10-05T21:08:59.751Z,93912.19
2022-10-05T21:11:29.672Z,93910.81
2022-10-05T21:14:04.799Z,93913.47
2022-10-05T21:16:38.423Z,93911.16
2022-10-05T21:19:09.758Z,93905.69
2022-10-05T21:21:40.070Z,93910.88
2022-10-05T21:24:11.596Z,93913.69
2022-10-05T21:26:41.992Z,93908.50
2022-10-05T21:29:13.550Z,93907.28
2022-10-05T21:31:44.857Z,93902.84
2022-10-05T21:34:14.650Z,93908.16
2022-10-05T21:36:44.574Z,93902.28
2022-10-05T21:39:14.354Z,93906.72
2022-10-05T21:41:44.291Z,93911.09
2022-10-05T21:44:14.019Z,93912.97
2022-10-05T21:46:45.574Z,93920.13
2022-10-05T21:52:44.952Z,93913.28
2022-10-05T21:55:14.727Z,93916.75
2022-10-05T21:57:45.675Z,93922.72
2022-10-05T22:00:17.051Z,93920.91
2022-10-05T22:02:46.834Z,93924.41
2022-10-05T22:05:16.811Z,93923.81
2022-10-05T22:07:48.211Z,93923.75
2022-10-05T22:10:18.490Z,93919.47
2022-10-05T22:12:48.621Z,93925.44
2022-10-05T22:15:18.491Z,93913.47
2022-10-05T22:17:48.289Z,93915.16
2022-10-05T22:20:20.631Z,93913.47
2022-10-05T22:22:52.063Z,93917.66
2022-10-05T22:25:22.478Z,93917.38
2022-10-05T22:27:52.891Z,93915.50
2022-10-05T22:30:23.050Z,93909.41
2022-10-05T22:32:54.111Z,93920.56
2022-10-05T22:35:23.979Z,93918.13
2022-10-05T22:37:55.258Z,93911.16
2022-10-05T22:40:24.894Z,93914.03
2022-10-05T22:42:55.070Z,93920.22
2022-10-05T22:45:30.315Z,93916.75
2022-10-05T22:48:02.171Z,93912.28
2022-10-05T22:50:32.275Z,93912.19
2022-10-05T22:53:03.533Z,93906.22
2022-10-05T22:55:33.436Z,93912.47
2022-10-05T22:58:04.286Z,93910.97
2022-10-05T23:00:56.583Z,93910.06
2022-10-05T23:03:24.202Z,93908.56
2022-10-05T23:06:00.514Z,93907.66
2022-10-05T23:08:32.555Z,93909.34
2022-10-05T23:11:06.660Z,93903.50
2022-10-05T23:13:36.791Z,93905.34
2022-10-05T23:16:11.888Z,93901.75
2022-10-05T23:18:42.841Z,93898.25
2022-10-05T23:21:13.639Z,93900.00
2022-10-05T23:23:49.269Z,93906.06
2022-10-05T23:26:22.988Z,93900.16
2022-10-05T23:28:52.990Z,93893.72
2022-10-05T23:31:25.374Z,93900.59
2022-10-05T23:33:55.230Z,93902.53
2022-10-05T23:36:27.154Z,93899.94
2022-10-05T23:38:58.614Z,93897.38
2022-10-05T23:41:28.634Z,93888.94
2022-10-05T23:43:58.455Z,93894.94
2022-10-05T23:46:28.378Z,93889.75
2022-10-05T23:48:58.139Z,93888.94
2022-10-05T23:51:28.312Z,93887.34
2022-10-05T23:53:59.601Z,93882.06
2022-10-05T23:56:29.537Z,93887.34
2022-10-05T23:58:59.209Z,93882.34
